createdAt,value
2023-04-15T00:00:49.143Z,6.72
2023-04-15T00:03:37.229Z,6.68
2023-04-15T00:06:25.169Z,6.73
2023-04-15T00:09:12.931Z,6.66
2023-04-15T00:12:00.802Z,6.63
2023-04-15T00:14:48.732Z,6.72
2023-04-15T00:17:36.507Z,6.84
2023-04-15T00:20:24.260Z,6.84
2023-04-15T00:23:12.018Z,6.84
2023-04-15T00:25:59.753Z,6.75
2023-04-15T00:28:47.449Z,6.80
2023-04-15T00:31:35.123Z,6.87
2023-04-15T00:34:23.473Z,6.96
2023-04-15T00:37:11.189Z,7.02
2023-04-15T00:39:58.864Z,6.97
2023-04-15T00:42:46.455Z,7.06
2023-04-15T00:45:34.506Z,7.07
2023-04-15T00:48:22.630Z,7.42
2023-04-15T00:51:10.909Z,7.43
2023-04-15T00:53:58.562Z,7.35
2023-04-15T00:56:46.478Z,6.75
2023-04-15T00:59:40.946Z,7.47
2023-04-15T01:02:29.147Z,7.63
2023-04-15T01:05:18.843Z,7.38
2023-04-15T01:08:06.897Z,7.35
2023-04-15T01:10:57.385Z,7.47
2023-04-15T01:13:45.242Z,7.36
2023-04-15T01:16:33.056Z,7.16
2023-04-15T01:19:20.838Z,7.33
2023-04-15T01:22:08.787Z,7.34
2023-04-15T01:25:10.087Z,7.51
2023-04-15T01:27:58.280Z,7.62
2023-04-15T01:30:45.978Z,7.61
2023-04-15T01:33:35.796Z,7.48
2023-04-15T01:36:23.541Z,7.58
2023-04-15T01:39:14.480Z,7.52
2023-04-15T01:42:02.586Z,7.56
2023-04-15T01:44:50.396Z,7.43
2023-04-15T01:47:38.054Z,7.39
2023-04-15T01:50:26.369Z,7.68
2023-04-15T01:53:16.726Z,7.91
2023-04-15T01:56:04.679Z,7.53
2023-04-15T01:58:53.103Z,7.69
2023-04-15T02:01:41.166Z,7.66
2023-04-15T02:04:29.135Z,7.72
2023-04-15T02:07:20.469Z,7.69
2023-04-15T02:10:09.253Z,7.74
2023-04-15T02:12:57.030Z,7.62
2023-04-15T02:15:49.318Z,7.79
2023-04-15T02:18:38.479Z,7.89
2023-04-15T02:21:29.543Z,7.88
2023-04-15T02:24:17.372Z,7.65
2023-04-15T02:27:05.065Z,8.05
2023-04-15T02:29:52.746Z,7.81
2023-04-15T02:32:41.177Z,7.70
2023-04-15T02:35:28.951Z,7.90
2023-04-15T02:38:18.107Z,7.81
2023-04-15T02:41:06.054Z,7.47
2023-04-15T02:43:55.168Z,7.57
2023-04-15T02:46:42.851Z,7.54
2023-04-15T02:49:31.218Z,7.53
2023-04-15T02:52:19.023Z,7.34
2023-04-15T02:55:07.024Z,7.37
2023-04-15T02:57:56.107Z,7.36
2023-04-15T03:00:44.014Z,7.26
2023-04-15T03:03:32.111Z,7.17
2023-04-15T03:06:20.012Z,7.25
2023-04-15T03:09:08.262Z,6.99
2023-04-15T03:11:58.096Z,7.00
2023-04-15T03:14:45.930Z,6.86
2023-04-15T03:17:33.744Z,6.83
2023-04-15T03:20:21.585Z,6.57
2023-04-15T03:23:09.656Z,6.60
2023-04-15T03:25:58.396Z,6.54
2023-04-15T03:28:46.966Z,6.42
2023-04-15T03:31:37.964Z,6.34
2023-04-15T03:34:25.935Z,6.33
2023-04-15T03:37:32.365Z,6.29
2023-04-15T03:40:21.862Z,6.17
2023-04-15T03:43:09.487Z,6.08
2023-04-15T03:45:57.408Z,6.24
2023-04-15T03:48:45.117Z,6.18
2023-04-15T03:51:32.786Z,5.97
2023-04-15T03:54:20.446Z,6.03
2023-04-15T03:57:08.161Z,5.90
2023-04-15T04:00:00.470Z,5.91
2023-04-15T04:02:53.758Z,5.92
2023-04-15T04:05:41.852Z,5.86
2023-04-15T04:08:32.217Z,5.92
2023-04-15T04:11:22.844Z,5.88
2023-04-15T04:14:10.836Z,5.89
2023-04-15T04:16:59.198Z,5.83
2023-04-15T04:19:46.917Z,6.03
2023-04-15T04:22:40.215Z,5.97
2023-04-15T04:25:28.368Z,6.09
2023-04-15T04:28:16.109Z,6.10
2023-04-15T04:31:03.800Z,5.95
2023-04-15T04:33:51.544Z,6.14
2023-04-15T04:36:39.318Z,6.25
2023-04-15T04:39:29.514Z,6.48
2023-04-15T04:42:17.202Z,7.03
2023-04-15T04:45:05.156Z,7.60
2023-04-15T04:47:55.057Z,8.22
2023-04-15T04:50:47.265Z,8.62
2023-04-15T04:53:37.264Z,9.37
2023-04-15T04:56:31.046Z,10.43
2023-04-15T04:59:19.554Z,10.93
2023-04-15T05:02:07.777Z,11.36
2023-04-15T05:04:55.661Z,11.77
2023-04-15T05:07:43.489Z,12.06
2023-04-15T05:10:31.175Z,12.50
2023-04-15T05:13:19.076Z,12.77
2023-04-15T05:16:07.025Z,12.92
2023-04-15T05:18:54.835Z,12.96
2023-04-15T05:21:42.889Z,13.69
2023-04-15T05:24:30.550Z,14.11
2023-04-15T05:27:19.361Z,14.38
2023-04-15T05:30:07.888Z,14.20
2023-04-15T05:32:56.050Z,14.35
2023-04-15T05:35:43.927Z,14.89
2023-04-15T05:38:34.073Z,15.80
2023-04-15T05:41:21.914Z,15.38
2023-04-15T05:44:09.852Z,15.38
2023-04-15T05:46:57.717Z,15.71
2023-04-15T05:49:45.616Z,16.48
2023-04-15T05:52:33.465Z,16.93
2023-04-15T05:55:21.451Z,17.14
2023-04-15T05:58:12.867Z,17.19
2023-04-15T06:01:00.699Z,16.77
2023-04-15T06:03:49.240Z,16.10
2023-04-15T06:06:38.474Z,16.53
2023-04-15T06:09:26.111Z,17.13
2023-04-15T06:12:14.677Z,16.81
2023-04-15T06:15:05.355Z,17.79
2023-04-15T06:17:53.120Z,18.48
2023-04-15T06:20:42.083Z,18.26
2023-04-15T06:23:30.323Z,18.26
2023-04-15T06:26:18.004Z,18.62
2023-04-15T06:29:05.965Z,18.67
2023-04-15T06:31:55.486Z,18.31
2023-04-15T06:34:43.164Z,17.87
2023-04-15T06:37:31.643Z,17.76
2023-04-15T06:40:22.601Z,18.22
2023-04-15T06:43:13.151Z,19.47
2023-04-15T06:46:24.487Z,19.26
2023-04-15T06:49:12.566Z,18.99
2023-04-15T06:52:00.905Z,19.42
2023-04-15T06:54:48.590Z,19.89
2023-04-15T06:57:36.313Z,18.86
2023-04-15T07:00:24.260Z,19.40
2023-04-15T07:03:13.205Z,20.17
2023-04-15T07:06:02.002Z,19.76
2023-04-15T07:08:49.963Z,19.40
2023-04-15T07:11:37.608Z,19.87
2023-04-15T07:14:25.301Z,20.27
2023-04-15T07:17:13.546Z,20.68
2023-04-15T07:20:01.389Z,20.78
2023-04-15T07:22:49.102Z,20.06
2023-04-15T07:25:37.205Z,19.84
2023-04-15T07:28:25.002Z,20.30
2023-04-15T07:31:12.694Z,20.69
2023-04-15T07:34:00.386Z,21.24
2023-04-15T07:36:52.150Z,21.27
2023-04-15T07:39:39.861Z,21.62
2023-04-15T07:42:27.857Z,22.08
2023-04-15T07:45:15.796Z,21.36
2023-04-15T07:48:03.666Z,21.25
2023-04-15T07:50:51.350Z,20.60
2023-04-15T07:53:39.114Z,21.03
2023-04-15T07:56:26.915Z,21.71
2023-04-15T07:59:18.102Z,21.19
2023-04-15T08:02:05.724Z,21.59
2023-04-15T08:04:54.692Z,21.08
2023-04-15T08:07:43.417Z,21.36
2023-04-15T08:10:31.129Z,21.95
2023-04-15T08:13:19.086Z,21.86
2023-04-15T08:16:16.949Z,21.61
2023-04-15T08:19:04.984Z,22.17
2023-04-15T08:21:56.718Z,22.62
2023-04-15T08:24:46.722Z,22.77
2023-04-15T08:27:36.951Z,22.45
2023-04-15T08:30:24.871Z,22.40
2023-04-15T08:33:12.712Z,22.34
2023-04-15T08:36:07.056Z,22.92
2023-04-15T08:38:55.047Z,24.01
2023-04-15T08:41:50.825Z,22.90
2023-04-15T08:44:47.034Z,22.92
2023-04-15T08:47:40.733Z,22.45
2023-04-15T08:50:50.783Z,22.01
2023-04-15T08:53:38.635Z,23.50
2023-04-15T08:56:29.561Z,23.60
2023-04-15T08:59:21.682Z,23.28
2023-04-15T09:02:09.679Z,24.01
2023-04-15T09:05:04.944Z,24.10
2023-04-15T09:07:53.923Z,23.57
2023-04-15T09:10:44.597Z,23.39
2023-04-15T09:13:35.062Z,23.63
2023-04-15T09:16:25.295Z,23.70
2023-04-15T09:19:24.384Z,23.99
2023-04-15T09:22:14.826Z,24.00
2023-04-15T09:25:02.581Z,24.47
2023-04-15T09:27:58.254Z,24.90
2023-04-15T09:30:51.010Z,25.04
2023-04-15T09:33:56.888Z,23.74
2023-04-15T09:36:59.176Z,24.07
2023-04-15T09:39:51.372Z,24.14
2023-04-15T09:42:57.958Z,24.69
2023-04-15T09:45:53.772Z,24.78
2023-04-15T09:48:41.371Z,24.62
2023-04-15T09:51:36.803Z,23.98
2023-04-15T09:54:24.575Z,23.31
2023-04-15T09:57:12.558Z,23.75
2023-04-15T10:00:00.237Z,23.88
2023-04-15T10:02:49.324Z,23.24
2023-04-15T10:05:38.095Z,23.18
2023-04-15T10:08:28.549Z,23.84
2023-04-15T10:11:19.139Z,23.81
2023-04-15T10:14:08.850Z,24.04
2023-04-15T10:17:00.374Z,24.50
2023-04-15T10:19:49.769Z,23.36
2023-04-15T10:22:56.024Z,23.99
2023-04-15T10:25:43.970Z,24.78
2023-04-15T10:28:31.965Z,24.69
2023-04-15T10:31:20.373Z,24.66
2023-04-15T10:34:08.727Z,24.59
2023-04-15T10:36:58.671Z,24.01
2023-04-15T10:39:46.580Z,24.02
2023-04-15T10:42:35.730Z,24.02
2023-04-15T10:45:27.435Z,24.09
2023-04-15T10:48:16.605Z,24.07
2023-04-15T10:51:05.361Z,24.37
2023-04-15T10:53:57.889Z,24.47
2023-04-15T10:56:46.391Z,24.15
2023-04-15T10:59:59.882Z,24.44
2023-04-15T11:03:06.768Z,24.04
2023-04-15T11:05:54.850Z,23.66
2023-04-15T11:08:57.675Z,23.25
2023-04-15T11:12:08.662Z,23.49
2023-04-15T11:14:57.804Z,23.21
2023-04-15T11:17:46.506Z,23.50
2023-04-15T11:20:34.728Z,24.27
2023-04-15T11:23:36.012Z,23.88
2023-04-15T11:26:27.291Z,23.74
2023-04-15T11:29:18.510Z,23.69
2023-04-15T11:32:09.579Z,23.64
2023-04-15T11:34:58.527Z,24.13
2023-04-15T11:37:52.251Z,23.99
2023-04-15T11:40:46.183Z,22.83
2023-04-15T11:43:35.784Z,22.85
2023-04-15T11:46:32.480Z,23.33
2023-04-15T11:49:34.259Z,22.90
2023-04-15T11:52:21.933Z,23.25
2023-04-15T11:55:12.073Z,23.43
2023-04-15T11:58:19.070Z,23.45
2023-04-15T12:01:08.062Z,23.76
2023-04-15T12:03:56.149Z,23.17
2023-04-15T12:06:44.036Z,23.32
2023-04-15T12:09:42.774Z,23.67
2023-04-15T12:12:31.212Z,24.28
2023-04-15T12:15:23.758Z,24.15
2023-04-15T12:18:20.484Z,24.32
2023-04-15T12:21:11.864Z,24.85
2023-04-15T12:24:03.873Z,25.02
2023-04-15T12:26:55.110Z,24.05
2023-04-15T12:29:44.160Z,23.94
2023-04-15T12:32:35.850Z,23.09
2023-04-15T12:35:23.625Z,23.29
2023-04-15T12:38:29.523Z,23.77
2023-04-15T12:41:24.701Z,23.01
2023-04-15T12:44:13.434Z,23.17
2023-04-15T12:47:54.574Z,22.90
2023-04-15T12:51:21.288Z,22.83
2023-04-15T12:54:48.984Z,23.20
2023-04-15T12:57:41.764Z,23.56
2023-04-15T13:00:31.823Z,23.66
2023-04-15T13:03:19.655Z,23.56
2023-04-15T13:06:09.650Z,23.02
2023-04-15T13:09:00.292Z,22.88
2023-04-15T13:11:48.032Z,23.23
2023-04-15T13:14:35.750Z,23.29
2023-04-15T13:17:23.405Z,22.89
2023-04-15T13:20:11.698Z,22.28
2023-04-15T13:22:59.463Z,22.39
2023-04-15T13:25:47.248Z,22.61
2023-04-15T13:28:35.259Z,22.50
2023-04-15T13:31:26.481Z,22.55
2023-04-15T13:34:14.340Z,22.93
2023-04-15T13:37:08.957Z,22.96
2023-04-15T13:39:57.081Z,21.60
2023-04-15T13:42:44.862Z,21.52
2023-04-15T13:45:32.683Z,21.53
2023-04-15T13:48:20.513Z,21.43
2023-04-15T13:51:16.521Z,21.79
2023-04-15T13:54:04.405Z,21.72
2023-04-15T13:56:52.229Z,21.24
2023-04-15T13:59:40.139Z,21.26
2023-04-15T14:02:27.933Z,21.04
2023-04-15T14:05:15.973Z,21.14
2023-04-15T14:08:04.993Z,21.01
2023-04-15T14:10:52.863Z,20.90
2023-04-15T14:13:40.614Z,20.93
2023-04-15T14:16:28.602Z,20.72
2023-04-15T14:19:16.735Z,20.91
2023-04-15T14:22:04.526Z,20.81
2023-04-15T14:24:53.928Z,21.05
2023-04-15T14:27:41.637Z,21.30
2023-04-15T14:30:29.528Z,21.36
2023-04-15T14:33:17.568Z,21.06
2023-04-15T14:36:07.138Z,20.96
2023-04-15T14:38:57.365Z,21.13
2023-04-15T14:41:45.183Z,21.20
2023-04-15T14:44:33.011Z,21.33
2023-04-15T14:47:29.717Z,21.39
2023-04-15T14:50:17.686Z,21.34
2023-04-15T14:53:05.578Z,21.33
2023-04-15T14:55:53.319Z,21.45
2023-04-15T14:58:41.052Z,21.41
2023-04-15T15:01:28.982Z,21.46
2023-04-15T15:04:16.972Z,21.32
2023-04-15T15:07:05.984Z,21.19
2023-04-15T15:09:55.259Z,21.28
2023-04-15T15:12:42.848Z,20.87
2023-04-15T15:15:30.665Z,20.63
2023-04-15T15:18:21.616Z,20.50
2023-04-15T15:21:09.222Z,20.49
2023-04-15T15:23:56.957Z,19.73
2023-04-15T15:26:47.459Z,20.04
2023-04-15T15:29:35.175Z,20.16
2023-04-15T15:32:22.905Z,20.03
2023-04-15T15:35:11.373Z,19.78
2023-04-15T15:38:02.510Z,19.47
2023-04-15T15:40:50.278Z,19.42
2023-04-15T15:43:37.970Z,19.35
2023-04-15T15:46:28.283Z,19.29
2023-04-15T15:49:16.115Z,19.07
2023-04-15T15:52:03.998Z,18.92
2023-04-15T15:54:51.807Z,18.83
2023-04-15T15:57:39.982Z,18.91
2023-04-15T16:00:27.949Z,18.81
2023-04-15T16:03:16.110Z,18.82
2023-04-15T16:06:07.636Z,18.77
2023-04-15T16:08:57.572Z,18.68
2023-04-15T16:11:47.906Z,18.53
2023-04-15T16:14:35.816Z,18.33
2023-04-15T16:17:24.584Z,18.33
2023-04-15T16:20:12.404Z,18.11
2023-04-15T16:23:01.391Z,18.01
2023-04-15T16:25:52.477Z,17.83
2023-04-15T16:28:40.190Z,17.90
2023-04-15T16:31:28.635Z,17.66
2023-04-15T16:34:19.554Z,17.39
2023-04-15T16:37:11.028Z,17.40
2023-04-15T16:40:01.112Z,17.25
2023-04-15T16:42:50.462Z,17.14
2023-04-15T16:45:38.688Z,17.04
2023-04-15T16:48:26.946Z,16.92
2023-04-15T16:51:20.026Z,16.66
2023-04-15T16:54:08.564Z,16.77
2023-04-15T16:56:58.868Z,16.68
2023-04-15T16:59:46.695Z,16.49
2023-04-15T17:02:37.403Z,16.28
2023-04-15T17:05:30.104Z,16.15
2023-04-15T17:08:18.010Z,16.24
2023-04-15T17:11:05.836Z,15.96
2023-04-15T17:13:53.741Z,15.90
2023-04-15T17:16:42.058Z,15.80
2023-04-15T17:19:30.115Z,15.60
2023-04-15T17:22:18.032Z,15.71
2023-04-15T17:25:09.204Z,15.27
2023-04-15T17:27:57.006Z,15.30
2023-04-15T17:30:48.833Z,15.28
2023-04-15T17:34:00.252Z,15.28
2023-04-15T17:36:54.403Z,15.14
2023-04-15T17:39:42.112Z,15.09
2023-04-15T17:42:29.850Z,14.82
2023-04-15T17:45:17.757Z,14.93
2023-04-15T17:48:07.999Z,14.65
2023-04-15T17:50:55.839Z,14.66
2023-04-15T17:53:48.853Z,14.59
2023-04-15T17:56:39.073Z,14.57
2023-04-15T17:59:26.747Z,14.39
2023-04-15T18:02:15.696Z,14.23
2023-04-15T18:05:03.775Z,14.36
2023-04-15T18:07:53.881Z,14.29
2023-04-15T18:10:44.678Z,13.99
2023-04-15T18:13:33.704Z,13.86
2023-04-15T18:16:21.586Z,13.63
2023-04-15T18:19:12.636Z,13.67
2023-04-15T18:22:00.756Z,13.53
2023-04-15T18:24:50.182Z,13.83
2023-04-15T18:27:41.043Z,13.53
2023-04-15T18:30:28.685Z,13.56
2023-04-15T18:33:16.477Z,13.40
2023-04-15T18:36:04.347Z,13.79
2023-04-15T18:38:52.035Z,13.80
2023-04-15T18:41:39.738Z,13.84
2023-04-15T18:44:28.616Z,13.78
2023-04-15T18:47:16.866Z,13.73
2023-04-15T18:50:04.877Z,13.79
2023-04-15T18:52:53.632Z,13.68
2023-04-15T18:55:41.476Z,13.57
2023-04-15T18:58:29.487Z,13.38
2023-04-15T19:01:37.330Z,13.29
2023-04-15T19:04:25.316Z,13.23
2023-04-15T19:07:30.370Z,13.12
2023-04-15T19:10:18.452Z,13.01
2023-04-15T19:13:06.728Z,13.05
2023-04-15T19:15:54.545Z,12.96
2023-04-15T19:18:42.359Z,12.87
2023-04-15T19:21:31.002Z,12.79
2023-04-15T19:24:22.197Z,12.78
2023-04-15T19:27:09.878Z,12.72
2023-04-15T19:29:57.607Z,12.67
2023-04-15T19:32:45.525Z,12.63
2023-04-15T19:35:33.650Z,12.65
2023-04-15T19:38:21.528Z,12.61
2023-04-15T19:41:10.661Z,12.68
2023-04-15T19:43:58.566Z,12.73
2023-04-15T19:46:50.162Z,12.73
2023-04-15T19:49:38.270Z,12.64
2023-04-15T19:52:26.449Z,12.46
2023-04-15T19:55:14.179Z,12.60
2023-04-15T19:58:01.971Z,12.45
2023-04-15T20:00:53.368Z,12.29
2023-04-15T20:03:41.432Z,12.33
2023-04-15T20:06:29.399Z,12.60
2023-04-15T20:09:17.414Z,12.34
2023-04-15T20:12:49.665Z,12.39
2023-04-15T20:15:13.174Z,12.26
2023-04-15T20:18:01.420Z,12.39
2023-04-15T20:20:49.145Z,12.46
2023-04-15T20:23:38.425Z,12.39
2023-04-15T20:26:29.007Z,12.21
2023-04-15T20:33:22.562Z,11.95
2023-04-15T20:36:10.473Z,12.15
2023-04-15T20:38:58.110Z,12.13
2023-04-15T20:41:45.930Z,12.09
2023-04-15T20:44:28.942Z,12.10
2023-04-15T20:47:16.863Z,12.02
2023-04-15T20:50:05.046Z,12.11
2023-04-15T20:52:52.761Z,11.87
2023-04-15T20:55:40.783Z,11.98
2023-04-15T20:58:28.535Z,11.98
2023-04-15T21:01:16.363Z,12.11
2023-04-15T21:04:04.183Z,12.12
2023-04-15T21:06:54.825Z,12.08
2023-04-15T21:09:43.988Z,12.02
2023-04-15T21:12:33.925Z,12.19
2023-04-15T21:15:23.371Z,12.14
2023-04-15T21:21:33.613Z,12.06
2023-04-15T21:24:24.376Z,12.09
2023-04-15T21:27:14.870Z,12.14
2023-04-15T21:30:24.000Z,12.13
